Time;durP1;ratioP1;P1;durP2;ratioP2;P2;SDS_P1;SDS_P2;PMS_P1;PMS_P2;Temp;Humidity;BMP_temperature;BMP_pressure;BME280_temperature;BME280_humidity;BME280_pressure;Samples;Min_cycle;Max_cycle;Signal;HPM_P1;HPM_P2
2022/01/18 00:01:28;;;;;;;5.38;2.95;;;;;;;5.93;56.50;99705.84;5050258;28;20407;-50
2022/01/18 00:03:53;;;;;;;4.20;3.00;;;;;;;5.75;57.33;99708.75;5050072;28;20030;-52
2022/01/18 00:06:19;;;;;;;5.70;2.85;;;;;;;5.94;57.17;99714.59;5050227;28;20116;-50
2022/01/18 00:08:44;;;;;;;4.03;2.75;;;;;;;6.36;55.84;99721.28;5049441;28;20068;-49
2022/01/18 00:11:10;;;;;;;4.90;3.17;;;;;;;6.28;56.09;99713.41;5049913;28;20028;-49
2022/01/18 00:13:43;;;;;;;3.92;2.85;;;;;;;6.09;56.40;99726.06;5049858;28;20373;-51
2022/01/18 00:16:22;;;;;;;5.35;3.00;;;;;;;5.92;56.52;99730.63;5049829;28;20025;-51
2022/01/18 00:18:49;;;;;;;6.47;2.88;;;;;;;5.85;56.92;99724.38;5049829;28;20035;-49
2022/01/18 00:21:23;;;;;;;4.03;2.40;;;;;;;6.03;56.06;99727.59;5050038;28;20060;-49
2022/01/18 00:23:53;;;;;;;3.78;2.42;;;;;;;6.04;56.17;99731.09;5049850;28;20056;-48
2022/01/18 00:26:19;;;;;;;3.85;2.30;;;;;;;6.02;56.51;99736.53;5049923;28;20090;-49
2022/01/18 00:28:50;;;;;;;4.68;2.40;;;;;;;6.04;56.13;99731.09;5049374;28;20607;-48
2022/01/18 00:36:41;;;;;;;3.28;2.20;;;;;;;6.04;55.50;99754.88;5049628;28;20098;-49
2022/01/18 00:39:08;;;;;;;3.63;2.13;;;;;;;5.98;56.17;99771.41;5049351;28;20028;-50
2022/01/18 00:41:34;;;;;;;3.30;1.80;;;;;;;5.90;56.17;99766.94;5049577;28;20036;-51
2022/01/18 00:43:59;;;;;;;3.08;1.75;;;;;;;5.96;56.14;99786.59;5048216;28;20024;-49
2022/01/18 00:46:25;;;;;;;5.38;1.80;;;;;;;6.05;56.58;99789.03;5049461;28;20083;-51
2022/01/18 00:48:56;;;;;;;4.50;2.08;;;;;;;6.48;55.87;99782.50;5049074;28;20083;-49
2022/01/18 00:51:21;;;;;;;2.67;1.77;;;;;;;6.59;54.96;99782.91;5049367;28;20028;-50
2022/01/18 00:53:47;;;;;;;2.80;2.13;;;;;;;6.57;55.32;99787.56;5049269;28;20537;-49
2022/01/18 00:58:38;;;;;;;2.88;1.75;;;;;;;5.98;57.42;99784.63;5049241;28;20033;-49
2022/01/18 01:01:04;;;;;;;2.38;1.70;;;;;;;6.00;57.76;99774.69;5049353;28;20048;-50
2022/01/18 01:03:29;;;;;;;3.13;2.00;;;;;;;6.10;57.71;99758.63;5049194;28;20503;-51
2022/01/18 01:05:55;;;;;;;3.53;1.73;;;;;;;6.21;57.32;99771.44;5049273;28;20037;-52
2022/01/18 01:08:20;;;;;;;2.75;1.85;;;;;;;6.43;56.67;99780.38;5048978;28;20053;-51
2022/01/18 01:10:46;;;;;;;3.17;1.92;;;;;;;6.62;56.38;99774.63;5048944;28;20033;-51
2022/01/18 01:13:12;;;;;;;2.47;1.63;;;;;;;6.20;57.49;99777.72;5049010;28;20239;-52
2022/01/18 01:15:58;;;;;;;2.30;1.70;;;;;;;5.74;59.17;99778.41;5047534;28;20025;-52
2022/01/18 01:34:55;;;;;;;3.00;1.80;;;;;;;5.91;58.64;99749.28;5047927;28;20440;-51
2022/01/18 01:45:26;;;;;;;4.53;1.50;;;;;;;6.29;56.54;99810.22;5053169;28;20615;-50
2022/01/18 01:47:53;;;;;;;3.95;1.75;;;;;;;6.19;57.00;99832.41;5052586;28;20082;-49
2022/01/18 01:50:21;;;;;;;2.88;2.00;;;;;;;6.23;57.08;99864.59;5052752;28;20029;-48
2022/01/18 01:52:47;;;;;;;2.50;1.90;;;;;;;5.87;59.98;99852.63;5052640;28;20029;-49
2022/01/18 01:55:12;;;;;;;2.53;1.80;;;;;;;5.69;64.43;99867.84;5052499;28;20108;-50
2022/01/18 01:57:38;;;;;;;3.22;2.00;;;;;;;5.51;66.71;99880.44;5052755;28;20132;-52
2022/01/18 02:00:09;;;;;;;3.17;1.80;;;;;;;5.56;66.37;99888.66;5052719;28;20120;-52
2022/01/18 02:02:35;;;;;;;2.50;1.90;;;;;;;5.51;66.09;99881.28;5052550;28;20036;-50
2022/01/18 02:05:00;;;;;;;2.05;1.48;;;;;;;5.42;65.67;99887.53;5052640;28;20032;-51
2022/01/18 02:07:26;;;;;;;2.28;1.60;;;;;;;5.38;65.77;99905.53;5050708;28;20044;-51
2022/01/18 02:09:51;;;;;;;2.33;1.77;;;;;;;5.46;66.10;99897.63;5051756;28;20159;-52
2022/01/18 02:12:18;;;;;;;2.20;1.77;;;;;;;5.56;65.52;99893.94;5051945;28;20033;-51
2022/01/18 02:14:47;;;;;;;2.45;1.70;;;;;;;5.25;66.62;99881.44;5051911;28;20074;-49
2022/01/18 02:22:46;;;;;;;2.85;1.90;;;;;;;4.52;68.16;99927.00;5050280;28;20031;-50
2022/01/18 02:25:11;;;;;;;2.97;1.85;;;;;;;4.61;66.31;99920.78;5051882;28;20037;-52
2022/01/18 02:27:36;;;;;;;2.88;1.83;;;;;;;4.83;64.86;99940.44;5051634;28;20454;-51
2022/01/18 02:30:02;;;;;;;2.88;1.90;;;;;;;4.73;63.70;99955.56;5051504;28;20029;-51
2022/01/18 02:32:28;;;;;;;2.88;1.70;;;;;;;4.87;61.46;99976.03;5051664;28;20036;-52
2022/01/18 02:34:53;;;;;;;2.40;1.60;;;;;;;4.85;61.57;99981.47;5051379;28;20471;-51
2022/01/18 02:37:19;;;;;;;1.65;1.40;;;;;;;4.77;60.59;99984.09;5051128;28;20028;-52
2022/01/18 02:39:44;;;;;;;2.33;1.38;;;;;;;4.73;60.39;100003.03;5049801;28;20033;-49
2022/01/18 02:42:11;;;;;;;1.90;1.60;;;;;;;4.69;59.50;99998.06;5051231;28;20029;-52
2022/01/18 02:44:36;;;;;;;1.73;1.40;;;;;;;5.17;57.05;100001.00;5051320;28;20699;-50
2022/01/18 02:47:02;;;;;;;1.95;1.55;;;;;;;5.31;57.76;100006.63;5051552;28;20037;-49
2022/01/18 02:49:28;;;;;;;1.88;1.33;;;;;;;5.17;58.67;100021.28;5051498;28;20231;-49
2022/01/18 02:51:55;;;;;;;1.80;1.30;;;;;;;5.03;58.73;100025.38;5051313;28;20453;-52
2022/01/18 02:54:20;;;;;;;2.15;1.63;;;;;;;5.02;59.41;100016.63;5051227;28;20063;-50
2022/01/18 02:56:54;;;;;;;2.40;1.55;;;;;;;5.03;59.19;100026.19;5051390;28;20417;-50
2022/01/18 02:59:36;;;;;;;1.88;1.60;;;;;;;5.07;60.38;100043.34;5051458;28;20628;-52
2022/01/18 03:04:48;;;;;;;1.85;1.58;;;;;;;4.70;62.09;100062.16;5050576;28;20035;-52
2022/01/18 03:07:13;;;;;;;3.78;1.52;;;;;;;4.64;62.17;100082.06;5051304;28;20746;-50
2022/01/18 03:09:39;;;;;;;2.58;1.60;;;;;;;4.83;60.41;100085.47;5050969;28;20112;-52
2022/01/18 03:12:05;;;;;;;1.80;1.35;;;;;;;4.75;59.12;100095.97;5050946;28;20519;-51
2022/01/18 03:14:31;;;;;;;1.88;1.40;;;;;;;4.80;57.71;100109.53;5051184;28;20162;-51
2022/01/18 03:16:56;;;;;;;2.13;1.52;;;;;;;5.00;56.41;100110.91;5050955;28;20033;-52
2022/01/18 03:19:22;;;;;;;1.88;1.20;;;;;;;4.72;55.80;100112.91;5050977;28;20108;-49
2022/01/18 03:21:49;;;;;;;2.95;1.80;;;;;;;4.24;54.88;100117.72;5050735;28;20682;-50
2022/01/18 03:24:32;;;;;;;2.70;1.70;;;;;;;4.21;54.17;100125.94;5050732;28;20464;-49
2022/01/18 03:29:41;;;;;;;1.85;1.13;;;;;;;4.77;48.19;100131.75;5051029;28;20036;-49
2022/01/18 03:32:07;;;;;;;1.55;1.30;;;;;;;4.18;47.07;100125.41;5051059;28;20029;-48
2022/01/18 03:34:37;;;;;;;1.60;1.00;;;;;;;4.08;46.16;100128.97;5050273;28;20017;-50
2022/01/18 03:37:06;;;;;;;2.15;1.20;;;;;;;3.69;46.35;100142.44;5050325;28;20070;-52
2022/01/18 03:39:31;;;;;;;1.73;1.13;;;;;;;3.88;45.36;100145.88;5049049;28;20491;-49
2022/01/18 03:42:31;;;;;;;1.52;1.10;;;;;;;3.75;45.39;100151.56;5050812;28;20561;-49
2022/01/18 03:44:47;;;;;;;2.05;1.20;;;;;;;3.50;46.00;100164.44;5050442;28;20042;-48
2022/01/18 03:47:14;;;;;;;2.40;1.30;;;;;;;3.32;45.61;100166.19;5050334;28;20161;-50
2022/01/18 03:49:39;;;;;;;1.55;1.10;;;;;;;3.46;44.24;100168.31;5050508;28;20024;-52
2022/01/18 03:52:05;;;;;;;1.85;1.13;;;;;;;3.46;43.53;100176.22;5050912;28;20025;-50
2022/01/18 03:54:31;;;;;;;2.17;1.30;;;;;;;3.55;42.37;100182.41;5050322;28;20025;-50
2022/01/18 03:56:56;;;;;;;1.95;1.17;;;;;;;3.57;41.50;100190.97;5048255;28;20037;-51
2022/01/18 03:59:21;;;;;;;1.85;1.30;;;;;;;3.57;40.88;100184.91;5049441;28;20028;-52
2022/01/18 04:01:47;;;;;;;1.50;1.00;;;;;;;3.66;40.68;100200.63;5049579;28;20032;-52
2022/01/18 04:04:12;;;;;;;3.35;1.30;;;;;;;3.62;40.15;100225.59;5048832;28;20463;-48
2022/01/18 04:06:38;;;;;;;2.70;1.30;;;;;;;3.90;39.89;100220.28;5050002;28;20099;-51
2022/01/18 04:09:04;;;;;;;1.67;1.00;;;;;;;3.88;41.70;100232.78;5049687;28;20060;-51
2022/01/18 04:11:29;;;;;;;1.35;1.02;;;;;;;3.74;39.40;100236.75;5049793;28;20036;-49
2022/01/18 04:13:54;;;;;;;29.70;12.18;;;;;;;3.73;39.31;100245.63;5050058;28;20036;-51
2022/01/18 04:16:20;;;;;;;2.63;1.77;;;;;;;3.37;39.63;100242.91;5049580;28;20645;-49
2022/01/18 04:18:53;;;;;;;6.10;2.20;;;;;;;3.82;38.85;100262.34;5049849;28;20519;-50
2022/01/18 04:29:12;;;;;;;2.72;1.50;;;;;;;3.66;40.40;100299.84;5049818;28;20125;-48
2022/01/18 04:31:38;;;;;;;3.08;1.67;;;;;;;3.27;40.84;100300.78;5049610;28;20034;-50
2022/01/18 04:34:03;;;;;;;2.15;1.20;;;;;;;3.64;40.35;100307.88;5048789;28;20621;-50
2022/01/18 04:36:29;;;;;;;3.42;1.65;;;;;;;3.84;40.32;100315.69;5049489;28;20090;-50
2022/01/18 04:38:55;;;;;;;4.80;1.50;;;;;;;3.58;40.57;100323.41;5049479;28;20400;-51
2022/01/18 04:41:26;;;;;;;5.57;1.40;;;;;;;3.65;41.32;100325.31;5049445;28;20098;-52
2022/01/18 04:49:22;;;;;;;3.13;1.70;;;;;;;3.30;42.11;100321.56;5048451;28;20112;-52
2022/01/18 04:51:47;;;;;;;7.78;1.90;;;;;;;3.18;42.41;100335.00;5048280;28;20025;-51
2022/01/18 04:54:14;;;;;;;3.03;1.50;;;;;;;3.03;42.48;100338.06;5048254;28;20524;-47
2022/01/18 04:59:07;;;;;;;3.75;1.50;;;;;;;3.06;42.34;100350.09;5048843;28;20032;-49
2022/01/18 05:01:33;;;;;;;2.63;1.52;;;;;;;3.20;42.26;100362.00;5049133;28;20116;-50
2022/01/18 05:03:58;;;;;;;5.03;1.80;;;;;;;3.38;42.07;100368.19;5049299;28;20083;-50
2022/01/18 05:06:24;;;;;;;8.50;3.45;;;;;;;3.12;42.61;100383.72;5049246;28;20469;-51
2022/01/18 05:08:50;;;;;;;8.55;4.00;;;;;;;2.89;43.18;100377.94;5048333;28;20049;-48
2022/01/18 05:11:18;;;;;;;3.35;1.70;;;;;;;3.00;44.61;100385.69;5048863;28;20032;-51
2022/01/18 05:16:42;;;;;;;3.60;2.28;;;;;;;2.74;42.93;100391.50;5053192;28;20099;-50
2022/01/18 05:22:58;;;;;;;2.83;1.65;;;;;;;2.64;43.01;100403.78;5052717;28;20392;-50
2022/01/18 05:24:26;;;;;;;4.85;2.00;;;;;;;3.04;42.59;100412.53;5052692;28;20499;-48
2022/01/18 05:26:52;;;;;;;5.28;1.75;;;;;;;2.99;44.66;100409.47;5052678;28;20027;-50
2022/01/18 05:29:17;;;;;;;4.35;1.98;;;;;;;2.96;44.09;100420.28;5052331;28;20021;-50
2022/01/18 05:31:43;;;;;;;7.47;2.13;;;;;;;2.78;43.86;100415.72;5052452;28;20033;-49
2022/01/18 05:34:08;;;;;;;3.58;2.00;;;;;;;2.96;43.83;100422.91;5053202;28;20021;-49
2022/01/18 05:36:34;;;;;;;6.90;2.05;;;;;;;3.01;42.70;100432.06;5052729;28;20025;-49
2022/01/18 05:38:59;;;;;;;5.15;1.92;;;;;;;2.86;42.89;100438.69;5052510;28;20401;-50
2022/01/18 05:41:24;;;;;;;5.20;2.20;;;;;;;2.58;43.54;100427.97;5052259;28;20025;-50
2022/01/18 05:43:50;;;;;;;5.15;1.88;;;;;;;2.78;43.53;100441.16;5052254;28;20033;-50
2022/01/18 05:46:16;;;;;;;4.50;1.65;;;;;;;2.43;44.13;100439.81;5052004;28;20036;-49
2022/01/18 05:48:41;;;;;;;6.05;2.10;;;;;;;2.76;43.29;100433.41;5052259;28;20055;-51
2022/01/18 05:51:07;;;;;;;11.60;4.50;;;;;;;2.41;42.80;100439.13;5052079;28;20047;-48
2022/01/18 05:53:35;;;;;;;5.63;2.25;;;;;;;2.72;42.24;100458.28;5051504;28;20025;-49
2022/01/18 05:56:03;;;;;;;3.33;1.70;;;;;;;2.68;42.35;100457.72;5051946;28;20055;-52
2022/01/18 05:58:29;;;;;;;3.53;2.00;;;;;;;2.78;41.49;100454.28;5052305;28;20057;-52
2022/01/18 06:00:55;;;;;;;4.07;1.92;;;;;;;2.80;40.73;100444.47;5052312;28;20033;-50
2022/01/18 06:03:31;;;;;;;3.10;1.90;;;;;;;2.96;40.31;100454.47;5052147;28;20025;-49
2022/01/18 06:08:41;;;;;;;2.53;1.38;;;;;;;3.25;39.31;100465.00;5051000;28;20114;-52
2022/01/18 06:11:07;;;;;;;4.25;1.85;;;;;;;3.33;39.98;100455.47;5031956;28;20498;-49
2022/01/18 06:13:33;;;;;;;9.95;2.20;;;;;;;3.40;39.21;100463.59;5030889;28;20065;-39
2022/01/18 06:15:58;;;;;;;3.38;1.58;;;;;;;3.61;39.32;100470.53;5030875;28;20022;-38
2022/01/18 06:18:23;;;;;;;4.68;1.95;;;;;;;3.80;38.80;100473.13;5031160;28;20537;-40
2022/01/18 06:20:49;;;;;;;3.60;1.83;;;;;;;3.96;39.22;100463.78;5031068;28;20040;-37
2022/01/18 06:23:14;;;;;;;2.83;1.20;;;;;;;3.73;39.47;100456.22;5031059;28;20043;-37
2022/01/18 06:25:40;;;;;;;2.85;1.67;;;;;;;3.86;39.30;100450.66;5030465;28;20567;-37
2022/01/18 06:28:06;;;;;;;2.20;1.35;;;;;;;4.00;39.07;100455.47;5030334;28;20025;-37
2022/01/18 06:30:31;;;;;;;6.47;2.65;;;;;;;4.07;39.05;100467.13;5029862;28;20030;-37
2022/01/18 06:32:57;;;;;;;5.38;1.60;;;;;;;4.29;39.62;100465.91;5029720;28;20604;-37
2022/01/18 06:35:22;;;;;;;3.95;1.90;;;;;;;4.37;39.62;100459.91;5029937;28;20090;-37
2022/01/18 06:37:48;;;;;;;4.13;2.38;;;;;;;4.48;39.76;100457.09;5030430;28;20044;-48
2022/01/18 06:40:14;;;;;;;5.82;2.88;;;;;;;4.68;39.43;100464.88;5030220;28;20029;-53
2022/01/18 06:42:39;;;;;;;3.35;2.08;;;;;;;4.67;39.62;100473.78;5030626;28;20025;-48
2022/01/18 06:45:05;;;;;;;3.38;2.00;;;;;;;4.55;39.94;100478.44;5030245;28;20583;-48
2022/01/18 06:47:31;;;;;;;3.40;2.28;;;;;;;4.73;40.22;100488.19;5029848;28;20441;-36
2022/01/18 06:49:56;;;;;;;5.05;2.08;;;;;;;5.34;39.20;100487.50;5030616;28;20032;-44
2022/01/18 06:52:21;;;;;;;5.13;1.95;;;;;;;5.35;39.12;100483.88;5030470;28;20539;-38
2022/01/18 06:54:47;;;;;;;5.95;2.17;;;;;;;4.82;40.11;100492.59;5046581;28;20025;-37
2022/01/18 06:57:13;;;;;;;3.00;2.00;;;;;;;5.06;39.92;100498.13;5050257;28;20040;-37
2022/01/18 06:59:38;;;;;;;6.63;2.10;;;;;;;5.31;39.76;100494.88;5050184;28;20029;-37
2022/01/18 07:02:04;;;;;;;4.55;2.40;;;;;;;5.61;39.29;100493.66;5049505;28;20025;-37
2022/01/18 07:04:29;;;;;;;4.15;2.40;;;;;;;5.67;38.31;100503.59;5049330;28;20119;-37
2022/01/18 07:06:55;;;;;;;2.80;1.63;;;;;;;5.52;39.14;100510.41;5049196;28;20033;-37
2022/01/18 07:09:24;;;;;;;6.18;2.25;;;;;;;5.46;38.88;100498.66;5009154;28;1168867;-38
2022/01/18 07:11:56;;;;;;;4.00;2.30;;;;;;;5.80;38.46;100498.75;5049776;28;20067;-38
2022/01/18 07:14:22;;;;;;;6.28;2.42;;;;;;;6.86;37.64;100510.94;5050245;28;20021;-38
2022/01/18 07:16:47;;;;;;;6.03;2.92;;;;;;;6.46;37.37;100509.78;5049815;28;20381;-38
2022/01/18 07:19:13;;;;;;;5.47;2.20;;;;;;;6.20;37.54;100523.00;5049954;28;20404;-39
2022/01/18 07:21:38;;;;;;;6.72;2.47;;;;;;;6.47;36.98;100527.28;5049949;28;20024;-38
2022/01/18 07:24:14;;;;;;;3.55;2.00;;;;;;;6.70;37.06;100526.72;5049622;28;20424;-38
2022/01/18 07:26:39;;;;;;;4.53;2.13;;;;;;;6.91;36.46;100539.53;5049646;28;20467;-38
2022/01/18 07:29:05;;;;;;;3.78;2.20;;;;;;;6.83;36.95;100553.56;5049599;28;20009;-38
2022/01/18 07:31:30;;;;;;;4.30;2.25;;;;;;;7.34;36.05;100546.44;5049647;28;20428;-39
2022/01/18 07:33:56;;;;;;;2.97;1.90;;;;;;;6.77;36.67;100570.91;5049598;28;20048;-38
2022/01/18 07:36:21;;;;;;;5.80;2.03;;;;;;;6.72;36.40;100575.84;5047879;28;20025;-38
2022/01/18 07:38:46;;;;;;;3.17;1.75;;;;;;;6.92;36.80;100568.50;5048963;28;20071;-38
2022/01/18 07:41:12;;;;;;;5.53;2.22;;;;;;;6.97;35.91;100574.16;5049307;28;20082;-37
2022/01/18 07:43:40;;;;;;;5.35;2.38;;;;;;;7.01;36.56;100572.00;5049339;28;20497;-37
2022/01/18 07:46:05;;;;;;;4.18;2.20;;;;;;;6.70;36.73;100584.91;5049442;28;20033;-39
2022/01/18 07:48:31;;;;;;;4.55;2.17;;;;;;;7.19;35.94;100601.00;5049504;28;20534;-38
2022/01/18 07:50:58;;;;;;;5.82;2.28;;;;;;;7.24;35.93;100596.91;5048758;28;20033;-38
2022/01/18 07:53:24;;;;;;;5.97;2.30;;;;;;;7.03;36.40;100597.31;5048971;28;20484;-37
2022/01/18 07:55:49;;;;;;;4.22;2.38;;;;;;;7.18;36.11;100596.72;5049662;28;20036;-37
2022/01/18 07:58:15;;;;;;;4.97;2.60;;;;;;;7.63;35.86;100606.09;5049912;28;20017;-38
2022/01/18 08:00:41;;;;;;;3.63;2.15;;;;;;;7.59;35.10;100591.50;5050235;28;20017;-37
2022/01/18 08:03:06;;;;;;;7.32;2.45;;;;;;;7.72;40.05;100585.75;5050967;28;20021;-37
2022/01/18 08:05:31;;;;;;;5.88;3.05;;;;;;;8.18;34.58;100596.66;5050955;28;20378;-37
2022/01/18 08:07:57;;;;;;;4.47;2.30;;;;;;;7.85;34.89;100609.94;5050812;28;20045;-38
2022/01/18 08:10:29;;;;;;;2.75;1.70;;;;;;;7.73;37.81;100617.38;5050330;28;20029;-37
2022/01/18 08:12:56;;;;;;;4.07;2.10;;;;;;;8.12;34.39;100622.03;5050435;28;20102;-39
2022/01/18 08:15:23;;;;;;;4.05;2.47;;;;;;;7.83;34.16;100626.00;5050757;28;20035;-38
2022/01/18 08:17:49;;;;;;;5.20;2.60;;;;;;;7.36;34.82;100618.59;5050629;28;20429;-38
2022/01/18 08:20:14;;;;;;;6.72;2.42;;;;;;;7.43;35.22;100622.28;5050709;28;20034;-38
2022/01/18 08:22:41;;;;;;;6.82;3.00;;;;;;;7.76;35.27;100622.31;5050673;28;20466;-38
2022/01/18 08:25:07;;;;;;;5.53;1.92;;;;;;;7.50;33.26;100617.16;5049727;28;20025;-38
2022/01/18 08:27:33;;;;;;;5.22;2.00;;;;;;;7.21;34.56;100612.25;5050239;28;20546;-38
2022/01/18 08:29:58;;;;;;;3.80;2.05;;;;;;;6.85;35.02;100629.16;5050267;28;20032;-38
2022/01/18 08:32:24;;;;;;;3.78;1.90;;;;;;;6.81;35.32;100642.84;5050156;28;20082;-38
2022/01/18 08:34:49;;;;;;;4.78;1.73;;;;;;;6.66;34.42;100647.88;5049626;28;20401;-38
2022/01/18 08:37:15;;;;;;;3.00;1.70;;;;;;;6.63;34.97;100641.09;5049376;28;20070;-37
2022/01/18 08:39:40;;;;;;;4.00;1.95;;;;;;;7.81;33.42;100635.09;5049770;28;20094;-36
2022/01/18 08:42:06;;;;;;;5.95;2.45;;;;;;;7.78;33.07;100644.19;5049211;28;20024;-37
2022/01/18 08:44:32;;;;;;;4.82;2.33;;;;;;;8.05;32.97;100646.72;5049173;28;20024;-37
2022/01/18 08:46:57;;;;;;;2.67;1.80;;;;;;;7.78;32.93;100656.63;5049070;28;20017;-37
2022/01/18 08:49:22;;;;;;;6.63;2.30;;;;;;;7.80;32.91;100663.41;5048946;28;20091;-37
2022/01/18 08:51:48;;;;;;;4.28;2.03;;;;;;;7.78;33.20;100659.28;5049083;28;20028;-37
2022/01/18 08:54:13;;;;;;;3.95;1.90;;;;;;;7.43;33.32;100653.22;5048855;28;20033;-39
2022/01/18 08:56:39;;;;;;;3.72;2.03;;;;;;;7.51;33.28;100661.19;5049147;28;20404;-39
2022/01/18 08:59:04;;;;;;;4.68;2.22;;;;;;;7.60;33.00;100656.75;5049570;28;20036;-39
2022/01/18 09:01:30;;;;;;;4.55;2.00;;;;;;;8.11;33.12;100656.66;5049528;28;20076;-39
2022/01/18 09:03:55;;;;;;;3.08;1.80;;;;;;;8.43;32.22;100647.88;5049814;28;20039;-38
2022/01/18 09:06:23;;;;;;;4.30;2.13;;;;;;;7.76;34.15;100655.97;5049288;28;20503;-38
2022/01/18 09:08:55;;;;;;;3.47;2.35;;;;;;;7.68;34.13;100651.47;5048750;28;20037;-37
2022/01/18 09:11:23;;;;;;;3.67;2.38;;;;;;;7.37;34.30;100649.41;5049245;28;20090;-37
2022/01/18 09:13:49;;;;;;;5.57;2.10;;;;;;;7.41;34.83;100648.09;5048797;28;20386;-38
2022/01/18 09:16:14;;;;;;;3.00;1.90;;;;;;;7.13;35.42;100644.00;5048927;28;20029;-37
2022/01/18 09:18:40;;;;;;;4.97;2.03;;;;;;;7.32;34.62;100648.22;5049223;28;20022;-37
2022/01/18 09:21:05;;;;;;;3.33;2.08;;;;;;;7.47;34.29;100645.78;5048871;28;20027;-38
2022/01/18 09:23:31;;;;;;;3.35;2.13;;;;;;;8.63;33.24;100658.16;5049000;28;20025;-39
2022/01/18 09:25:57;;;;;;;3.63;1.90;;;;;;;8.60;32.15;100648.69;5048797;28;20031;-37
2022/01/18 09:28:22;;;;;;;3.70;2.03;;;;;;;7.94;33.35;100647.84;5048846;28;20039;-38
2022/01/18 09:30:48;;;;;;;4.28;2.28;;;;;;;7.66;33.06;100656.09;5048678;28;20389;-39
2022/01/18 09:33:13;;;;;;;5.65;2.00;;;;;;;7.51;34.19;100655.88;5048819;28;20098;-38
2022/01/18 09:35:39;;;;;;;4.00;1.90;;;;;;;7.42;33.62;100652.41;5047461;28;20025;-38
2022/01/18 09:38:04;;;;;;;4.13;1.80;;;;;;;7.67;33.19;100651.63;5048863;28;20500;-38
2022/01/18 09:40:31;;;;;;;4.68;2.03;;;;;;;8.25;33.36;100657.84;5048427;28;20431;-38
2022/01/18 09:42:59;;;;;;;3.70;1.77;;;;;;;8.15;33.15;100644.75;5048880;28;20032;-38
2022/01/18 09:45:25;;;;;;;3.03;1.80;;;;;;;8.17;33.29;100653.38;5048508;28;20242;-37
2022/01/18 09:47:52;;;;;;;5.07;2.13;;;;;;;7.96;32.37;100657.31;5048287;28;20511;-37
2022/01/18 09:50:21;;;;;;;3.60;2.00;;;;;;;7.60;32.96;100646.97;5048437;28;20021;-37
2022/01/18 09:52:52;;;;;;;5.85;1.85;;;;;;;7.26;33.07;100628.50;5048533;28;20032;-38
2022/01/18 09:55:17;;;;;;;4.03;2.20;;;;;;;7.22;33.78;100628.00;5026543;28;20442;-37
2022/01/18 09:57:43;;;;;;;5.57;2.22;;;;;;;7.56;33.54;100629.75;5028433;28;20140;-37
2022/01/18 10:00:09;;;;;;;5.28;2.45;;;;;;;7.61;33.84;100616.00;5038573;28;20497;-37
2022/01/18 10:02:34;;;;;;;3.13;1.88;;;;;;;7.99;33.15;100616.38;5052431;28;20021;-38
2022/01/18 10:05:00;;;;;;;6.28;2.47;;;;;;;8.03;32.86;100596.50;5052262;28;20032;-37
2022/01/18 10:07:33;;;;;;;3.78;1.88;;;;;;;7.52;32.92;100609.88;5050596;28;20374;-38
2022/01/18 10:09:59;;;;;;;3.42;1.95;;;;;;;7.36;33.47;100607.19;5051775;28;20074;-38
2022/01/18 10:12:24;;;;;;;4.60;2.45;;;;;;;7.10;33.92;100594.88;5050281;28;20021;-38
2022/01/18 10:14:54;;;;;;;4.45;2.40;;;;;;;7.38;33.82;100598.06;5052184;28;20342;-38
2022/01/18 10:17:36;;;;;;;3.58;2.10;;;;;;;7.53;33.23;100593.00;5052110;28;20025;-38
2022/01/18 10:20:06;;;;;;;4.05;2.15;;;;;;;7.17;33.78;100589.75;5051754;28;20104;-38
2022/01/18 10:22:43;;;;;;;3.92;2.05;;;;;;;7.70;33.01;100579.78;5051973;28;20025;-38
2022/01/18 10:25:20;;;;;;;3.08;1.98;;;;;;;7.18;33.83;100596.72;5052133;28;20017;-38
2022/01/18 10:27:49;;;;;;;5.25;2.00;;;;;;;7.16;33.64;100582.78;5051649;28;20027;-39
2022/01/18 10:30:22;;;;;;;3.38;2.00;;;;;;;7.40;33.17;100576.75;5051712;28;20028;-37
2022/01/18 10:33:08;;;;;;;7.40;2.85;;;;;;;8.10;32.37;100581.59;5052058;28;20037;-38
2022/01/18 10:35:34;;;;;;;4.63;2.10;;;;;;;8.82;31.45;100590.63;5051365;28;20029;-38
2022/01/18 10:38:00;;;;;;;5.80;2.03;;;;;;;7.93;31.92;100572.00;5051531;28;20024;-38
2022/01/18 10:40:26;;;;;;;3.85;2.10;;;;;;;7.63;32.90;100571.63;5051413;28;20023;-38
2022/01/18 10:42:53;;;;;;;4.80;2.10;;;;;;;7.61;32.73;100573.63;5051096;28;20017;-38
2022/01/18 10:45:35;;;;;;;3.50;2.00;;;;;;;7.50;33.54;100572.16;5051214;28;20028;-38
2022/01/18 10:48:03;;;;;;;4.25;2.08;;;;;;;7.97;32.71;100563.53;5050720;28;20037;-38
2022/01/18 10:50:33;;;;;;;3.67;2.00;;;;;;;8.35;32.29;100565.66;5050947;28;20477;-38
2022/01/18 10:53:25;;;;;;;;;;;;;;;8.27;32.74;100568.34;5051901;28;20267;-38
2022/01/18 10:56:11;;;;;;;3.35;2.00;;;;;;;7.88;33.35;100567.22;5051512;28;20054;-38
2022/01/18 10:58:45;;;;;;;4.72;2.28;;;;;;;8.59;33.40;100570.13;5051558;28;20392;-37
2022/01/18 11:01:17;;;;;;;3.85;2.08;;;;;;;8.21;32.38;100569.84;5051276;28;20107;-37
2022/01/18 11:04:19;;;;;;;4.45;2.20;;;;;;;8.00;31.89;100562.41;5051255;28;20017;-37
2022/01/18 11:06:58;;;;;;;4.22;2.10;;;;;;;8.43;30.86;100563.00;5051108;28;20044;-38
2022/01/18 11:09:23;;;;;;;5.30;3.22;;;;;;;8.31;31.58;100561.69;5050059;28;20124;-38
2022/01/18 11:11:49;;;;;;;4.22;2.20;;;;;;;7.61;32.81;100566.50;5049216;28;20484;-38
2022/01/18 11:14:20;;;;;;;4.68;2.47;;;;;;;7.71;33.03;100561.06;5049259;28;20079;-38
2022/01/18 11:16:49;;;;;;;3.30;1.90;;;;;;;7.63;32.75;100556.59;5050589;28;20029;-38
2022/01/18 11:21:48;;;;;;;2.42;1.73;;;;;;;8.07;33.00;100563.34;5050730;28;20033;-37
2022/01/18 11:24:18;;;;;;;3.08;2.10;;;;;;;8.61;31.46;100558.31;5050609;28;20028;-38
2022/01/18 11:26:44;;;;;;;4.03;2.13;;;;;;;8.37;31.73;100574.28;5050365;28;20028;-38
2022/01/18 11:29:11;;;;;;;3.30;2.22;;;;;;;7.87;33.14;100556.78;5050652;28;20096;-38
2022/01/18 11:31:36;;;;;;;4.45;2.20;;;;;;;7.54;32.74;100562.03;5050073;28;20021;-38
2022/01/18 11:34:02;;;;;;;2.75;1.70;;;;;;;7.40;33.20;100568.78;5032274;28;20033;-38
2022/01/18 11:36:32;;;;;;;3.50;1.90;;;;;;;7.58;33.54;100577.44;5049050;28;20032;-38
2022/01/18 11:39:00;;;;;;;5.55;2.13;;;;;;;8.21;33.45;100570.66;5048771;28;20021;-38
2022/01/18 11:41:28;;;;;;;5.93;2.55;;;;;;;8.41;33.14;100570.28;5048717;28;20021;-38
2022/01/18 11:43:55;;;;;;;4.07;2.67;;;;;;;8.16;33.02;100562.38;5049759;28;20029;-39
2022/01/18 11:46:31;;;;;;;6.00;2.35;;;;;;;8.19;32.75;100561.22;5049984;28;20032;-38
2022/01/18 11:49:06;;;;;;;3.42;2.20;;;;;;;8.14;32.16;100574.97;5050217;28;20100;-37
2022/01/18 11:51:38;;;;;;;4.85;2.22;;;;;;;7.80;32.62;100564.53;5049765;28;20027;-37
2022/01/18 11:54:28;;;;;;;6.57;2.30;;;;;;;7.75;32.65;100558.88;5049434;28;20057;-38
2022/01/18 11:56:54;;;;;;;4.30;2.45;;;;;;;7.83;32.77;100562.38;5049768;28;20028;-36
2022/01/18 11:59:21;;;;;;;5.35;2.20;;;;;;;8.08;33.04;100565.03;5049848;28;20086;-39
2022/01/18 12:01:51;;;;;;;3.92;2.22;;;;;;;7.64;33.18;100557.41;5050190;28;20021;-36
2022/01/18 12:04:46;;;;;;;5.22;2.20;;;;;;;7.47;33.73;100556.56;5049956;28;20108;-37
2022/01/18 12:07:39;;;;;;;4.32;2.35;;;;;;;7.30;34.43;100558.34;5049968;28;20102;-37
2022/01/18 12:10:31;;;;;;;4.75;2.35;;;;;;;7.57;33.40;100567.00;5020602;28;20037;-37
2022/01/18 12:12:57;;;;;;;2.80;2.00;;;;;;;7.64;33.14;100560.06;5049518;28;20029;-37
2022/01/18 12:15:23;;;;;;;5.32;2.30;;;;;;;8.02;33.20;100552.44;5048326;28;20021;-38
2022/01/18 12:17:52;;;;;;;6.13;2.22;;;;;;;8.27;33.21;100563.84;5050021;28;20039;-37
2022/01/18 12:20:46;;;;;;;4.38;2.33;;;;;;;8.02;33.50;100561.22;5049760;28;20479;-37
2022/01/18 12:23:12;;;;;;;9.57;2.45;;;;;;;7.98;33.95;100551.94;5049238;28;20152;-38
2022/01/18 12:25:55;;;;;;;5.65;2.50;;;;;;;8.03;33.98;100562.03;5049791;28;20377;-38
2022/01/18 12:32:04;;;;;;;4.63;2.22;;;;;;;8.15;33.34;100558.06;5049378;28;20108;-39
2022/01/18 12:34:49;;;;;;;2.55;1.90;;;;;;;7.99;33.14;100544.81;5039075;28;20404;-37
2022/01/18 12:37:17;;;;;;;3.10;2.05;;;;;;;7.13;34.55;100554.84;5049287;28;20035;-37
2022/01/18 12:39:55;;;;;;;4.28;2.17;;;;;;;7.26;34.64;100553.56;5049030;28;20095;-38
2022/01/18 12:44:20;;;;;;;3.40;1.88;;;;;;;7.69;33.66;100543.66;5048870;28;20568;-37
2022/01/18 12:45:27;;;;;;;3.72;2.10;;;;;;;8.54;32.59;100570.63;5049146;28;20156;-37
2022/01/18 12:47:59;;;;;;;3.67;2.20;;;;;;;7.90;32.27;100567.00;5049609;28;20112;-39
2022/01/18 12:50:28;;;;;;;2.83;1.77;;;;;;;7.65;33.13;100559.06;5049278;28;20021;-37
2022/01/18 12:53:05;;;;;;;3.53;2.00;;;;;;;7.68;33.35;100560.56;5049299;28;20027;-39